Apple Valley, Minnesota
Current Conditions -  °F | °C
As of 7:08 PM on Monday 20 Oct 2014 (Local Time) from KLVN Reporting Station
Clear Clear  
Wind Chill: 50°   Ceiling: Unl
Heat Index: 50°   Visibility: 10mi
Dew Point: 39°   Wind: 3mph
Humidity: 66%   Direction: 340°NNW
Pressure: 30.03"   Gusts: NA
Location:  44.74°N, 93.22°W
Report Text: KLVN 210008Z AUTO 34003KT 10SM CLR 10/04 A3003 RMK AO2
Loading
Personal Weather Stations






























Interactive Weather Map
Tropical Storm Tracking
New forecast layout! Learn more

10-Day Weather Forecast

Advertisements
Track Severe Weather on mobile